M I D A S
Marine Information and Data Acquisition System
Tripno 2138 of the Zeeleeuw from 2010-04-22 08:00:00 to 2010-04-22 17:00:00
Back to CruiseResearch ActivitiesStationsMapUnderway DataData graphs

EquipmentUnitsComment
TimeDGPSUTC
LatitudeDGPSDM.mWGS84
LongitudeDGPSDM.mWGS84
HeadingGyrodeg 
SOGDGPSknotsSpeed over ground
COGDGPSdegCourse over ground
DepthEcho soundermeters200 kHz
Missing or incorrect values are displayed as -999
Navigation data collected by the RV Zeeleeuw from 2010-04-22 08:00:00 to 2010-04-22 17:00:00
Time Latitude Longitude Heading SOG COG Depth
2010-04-22 08:01:02 51°31.391 2°52.66 160.5 0.4 99 23.5
2010-04-22 08:02:02 51°31.384 2°52.676 184.2 0.8 131 23
2010-04-22 08:03:02 51°31.375 2°52.688 192.4 0.6 138 22.8
2010-04-22 08:04:02 51°31.368 2°52.691 209 0.3 171 22
2010-04-22 08:05:02 51°31.366 2°52.69 218.3 -999 209 22.2
2010-04-22 08:06:02 51°31.368 2°52.688 226.3 0.1 74 22.8
2010-04-22 08:07:02 51°31.371 2°52.687 231 0.5 341 22.1
2010-04-22 08:08:02 51°31.376 2°52.689 232.7 0.6 343 22.4
2010-04-22 08:09:02 51°31.379 2°52.686 234.6 0.3 315 22.8
2010-04-22 08:10:02 51°31.38 2°52.679 232.9 0.3 290 23.1
2010-04-22 08:11:02 51°31.38 2°52.674 232.2 0.2 185 23.2
2010-04-22 08:12:02 51°31.381 2°52.67 230.2 0.3 290 23
2010-04-22 08:13:02 51°31.382 2°52.668 228.8 0.1 152 23
2010-04-22 08:14:02 51°31.383 2°52.668 225.7 -999 56 23.2
2010-04-22 08:15:02 51°31.383 2°52.669 221.5 0.2 225 22.9
2010-04-22 08:16:02 51°31.381 2°52.669 221.5 -999 246 22.8
2010-04-22 08:17:02 51°31.381 2°52.67 222.1 0.3 313 22.8
2010-04-22 08:18:02 51°31.382 2°52.67 223.7 0.3 331 22.7
2010-04-22 08:19:02 51°31.383 2°52.671 221.6 0.2 357 22.7
2010-04-22 08:20:02 51°31.383 2°52.672 222.2 0.1 160 23.1
2010-04-22 08:21:02 51°31.382 2°52.672 220.9 0.1 186 22.9
2010-04-22 08:22:02 51°31.382 2°52.671 220.6 0.1 52 22.9
2010-04-22 08:23:02 51°31.382 2°52.672 217.8 0.1 85 22.9
2010-04-22 08:24:02 51°31.381 2°52.673 217.3 -999 285 22.8
2010-04-22 08:25:02 51°31.382 2°52.673 216.9 0.1 11 22.8
2010-04-22 08:26:02 51°31.381 2°52.674 216.2 0.2 119 22.8
2010-04-22 08:27:02 51°31.382 2°52.675 214.5 0.1 270 22.2
2010-04-22 08:28:02 51°31.382 2°52.677 215.1 0.2 119 22.9
2010-04-22 08:29:02 51°31.381 2°52.677 213.6 0.1 108 23.1
2010-04-22 08:30:02 51°31.38 2°52.678 210.7 0.1 131 22.4
2010-04-22 08:31:02 51°31.378 2°52.68 208.6 0.4 135 22.9
2010-04-22 08:32:02 51°31.377 2°52.68 208.4 0.1 232 22.1
2010-04-22 08:33:02 51°31.376 2°52.68 211.8 0.2 284 22.1
2010-04-22 08:34:02 51°31.376 2°52.68 217.8 0.1 15 22.3
2010-04-22 08:35:02 51°31.378 2°52.68 220.9 0.4 322 22.3
2010-04-22 08:36:02 51°31.38 2°52.68 223.6 0.1 347 22.9
2010-04-22 08:37:02 51°31.382 2°52.678 223.1 0.1 277 22.8
2010-04-22 08:38:02 51°31.383 2°52.675 221.2 0.2 246 22.1
2010-04-22 08:39:02 51°31.382 2°52.673 219.5 0.1 116 22.8
2010-04-22 08:40:02 51°31.381 2°52.67 218.6 0.2 282 22.3
2010-04-22 08:41:02 51°31.382 2°52.67 218.6 0.1 60 22.7
2010-04-22 08:42:02 51°31.383 2°52.67 216.2 0.3 326 22.6
2010-04-22 08:43:02 51°31.383 2°52.671 213.5 0.1 316 22.7
2010-04-22 08:44:02 51°31.381 2°52.671 212.9 0.4 200 22.6
2010-04-22 08:45:02 51°31.37 2°52.661 210.4 1 189 21.4
2010-04-22 08:46:02 51°31.356 2°52.65 208.4 0.7 224 19.1
2010-04-22 08:47:02 51°31.347 2°52.643 207.4 0.4 190 21.4
2010-04-22 08:48:02 51°31.342 2°52.64 206.1 0.6 180 22.5
2010-04-22 08:49:02 51°31.309 2°52.702 112.4 5.5 92 22.8
2010-04-22 08:50:02 51°31.394 2°52.901 43.4 13 42 21.7
2010-04-22 08:51:02 51°31.577 2°53.15 43.6 14.8 42 19
2010-04-22 08:52:02 51°31.763 2°53.412 43.7 15 40 22.9
2010-04-22 08:54:01 51°32.129 2°53.938 43.8 14.8 43 19.8
2010-04-22 08:55:55 51°32.481 2°54.445 44.4 15 42 23
2010-04-22 08:56:55 51°32.677 2°54.688 33 14.9 31 24.7
2010-04-22 08:57:55 51°32.897 2°54.877 27.9 15 27 25.7
2010-04-22 08:58:55 51°33.107 2°55.081 34.6 14.6 33 25.1
2010-04-22 08:59:55 51°33.276 2°55.306 63.2 10.9 64 27.1
2010-04-22 09:00:55 51°33.3 2°55.532 102.6 7 95 27
2010-04-22 09:01:55 51°33.263 2°55.668 137.7 4.1 130 26.8
2010-04-22 09:02:55 51°33.232 2°55.739 136.5 2.6 117 27.4
2010-04-22 09:03:55 51°33.219 2°55.792 137.9 1.9 111 27.3
2010-04-22 09:04:55 51°33.21 2°55.834 144.1 1.3 114 26.5
2010-04-22 09:05:55 51°33.207 2°55.87 146.2 1.2 92 24.2
2010-04-22 09:06:55 51°33.207 2°55.901 147.4 1.2 90 25.2
2010-04-22 09:07:55 51°33.208 2°55.928 149.3 0.8 90 25.4
2010-04-22 09:08:55 51°33.211 2°55.952 151.1 0.8 81 25.9
2010-04-22 09:09:55 51°33.214 2°55.974 153.2 0.7 78 26.6
2010-04-22 09:10:55 51°33.218 2°55.996 153 0.8 72 26.7
2010-04-22 09:11:55 51°33.222 2°56.016 155.8 0.7 73 27.8
2010-04-22 09:12:55 51°33.225 2°56.036 157.7 0.7 69 26.8
2010-04-22 09:13:55 51°33.23 2°56.053 161.4 0.7 60 27.6
2010-04-22 09:14:55 51°33.235 2°56.069 165 0.6 59 27.7
2010-04-22 09:15:55 51°33.24 2°56.085 168.8 0.6 58 27.5
2010-04-22 09:16:55 51°33.236 2°56.107 152.3 1.8 119 27.3
2010-04-22 09:17:55 51°33.223 2°56.182 116.2 3.7 100 27.4
2010-04-22 09:18:55 51°33.218 2°56.266 108.5 2.8 93 26.8
2010-04-22 09:19:55 51°33.22 2°56.333 107.6 2.3 87 28.2
2010-04-22 09:20:55 51°33.225 2°56.39 108 1.9 86 28.1
2010-04-22 09:21:55 51°33.231 2°56.438 108.1 1.7 78 26.6
2010-04-22 09:22:55 51°33.237 2°56.479 109.2 1.4 89 26.8
2010-04-22 09:23:55 51°33.242 2°56.515 113.6 1.5 67 25.2
2010-04-22 09:24:55 51°33.246 2°56.546 116.4 1 82 26.7
2010-04-22 09:25:55 51°33.25 2°56.573 116.9 1.1 72 26.8
2010-04-22 09:26:55 51°33.256 2°56.598 111.5 1 65 26.9
2010-04-22 09:27:55 51°33.264 2°56.622 105.3 1.2 52 26.7
2010-04-22 09:28:55 51°33.274 2°56.644 97 1.1 51 27.1
2010-04-22 09:29:55 51°33.285 2°56.664 92.2 0.9 50 26.4
2010-04-22 09:30:55 51°33.296 2°56.684 90.1 1.1 41 26.4
2010-04-22 09:31:55 51°33.306 2°56.703 87.7 0.9 55 25.9
2010-04-22 09:32:55 51°33.317 2°56.721 83.6 0.9 30 23.2
2010-04-22 09:33:55 51°33.327 2°56.732 81.9 0.5 26 25.5
2010-04-22 09:34:55 51°33.337 2°56.735 85.6 0.8 1 25.8
2010-04-22 09:35:55 51°33.346 2°56.736 93.4 0.7 3 26.1
2010-04-22 09:36:55 51°33.355 2°56.737 102.4 0.6 2 26.4
2010-04-22 09:37:55 51°33.364 2°56.743 109.6 0.8 23 26.5
2010-04-22 09:38:55 51°33.373 2°56.752 112.2 0.8 32 26.3
2010-04-22 09:39:55 51°33.381 2°56.764 109.4 0.7 41 27
2010-04-22 09:40:55 51°33.389 2°56.777 108.3 0.5 60 27.3
2010-04-22 09:41:55 51°33.396 2°56.792 107.5 0.5 64 27.9
2010-04-22 09:42:55 51°33.404 2°56.807 103.5 0.6 64 27.9
2010-04-22 09:43:55 51°33.412 2°56.824 97.8 0.9 44 27.7
2010-04-22 09:44:55 51°33.42 2°56.84 93.6 0.7 53 27.5
2010-04-22 09:45:55 51°33.428 2°56.857 91.8 0.9 44 26.6
2010-04-22 09:46:55 51°33.436 2°56.868 92.8 0.3 61 27.3
2010-04-22 09:47:55 51°33.444 2°56.873 98.8 0.5 7 27.7
2010-04-22 09:48:55 51°33.453 2°56.875 110.1 0.5 7 27.4
2010-04-22 09:49:55 51°33.462 2°56.881 115.1 0.6 21 27.3
2010-04-22 09:50:55 51°33.469 2°56.889 118.8 0.5 50 27.8
2010-04-22 09:51:55 51°33.475 2°56.899 121.5 0.5 50 28
2010-04-22 09:52:55 51°33.481 2°56.911 122.7 0.6 61 28
2010-04-22 09:53:55 51°33.486 2°56.923 124.4 0.4 63 28.7
2010-04-22 09:54:55 51°33.493 2°56.931 130.5 0.4 17 28
2010-04-22 09:55:55 51°33.503 2°56.935 137 0.7 6 28.3
2010-04-22 09:56:55 51°33.513 2°56.939 141.9 0.7 26 27.3
2010-04-22 09:57:55 51°33.521 2°56.944 142.7 0.6 28 26.4
2010-04-22 09:58:55 51°33.529 2°56.952 140.3 0.5 40 25.6
2010-04-22 09:59:55 51°33.535 2°56.962 136.3 0.5 55 24.6
2010-04-22 10:00:55 51°33.541 2°56.974 133.6 0.6 57 24.6
2010-04-22 10:01:55 51°33.546 2°56.986 130.7 0.4 50 24.8
2010-04-22 10:02:55 51°33.551 2°57 130.3 0.5 74 25.5
2010-04-22 10:03:55 51°33.555 2°57.015 131.9 0.6 66 24.8
2010-04-22 10:04:55 51°33.558 2°57.028 133.8 0.5 76 22.8
2010-04-22 10:05:55 51°33.561 2°57.041 136.3 0.7 69 25
2010-04-22 10:06:55 51°33.563 2°57.055 136.2 0.5 80 25.9
2010-04-22 10:07:55 51°33.564 2°57.068 135.1 0.6 74 26.2
2010-04-22 10:08:55 51°33.565 2°57.08 135.8 0.4 93 26.8
2010-04-22 10:09:55 51°33.565 2°57.096 136.4 1.1 110 26.8
2010-04-22 10:10:55 51°33.523 2°57.104 196.6 4.6 194 24.9
2010-04-22 10:11:55 51°33.409 2°56.991 215.2 10.3 215 27.4
2010-04-22 10:12:55 51°33.275 2°56.794 228.7 11.3 233 24.9
2010-04-22 10:13:55 51°33.165 2°56.569 236.5 9 235 26
2010-04-22 10:14:55 51°33.098 2°56.435 230.6 4.6 230 26.2
2010-04-22 10:15:55 51°33.076 2°56.352 251 2.7 253 25.6
2010-04-22 10:16:55 51°33.07 2°56.291 256.1 2 271 24.3
2010-04-22 10:17:55 51°33.073 2°56.287 273.4 2.4 89 -999
2010-04-22 10:18:59 51°33.072 2°56.408 279.6 5.3 92 -999
2010-04-22 10:19:58 51°33.061 2°56.529 288.9 3.8 99 25.7
2010-04-22 10:20:56 51°33.05 2°56.608 299.1 2.8 100 24.8
2010-04-22 10:21:55 51°33.037 2°56.662 305.8 2 115 24.1
2010-04-22 10:22:55 51°33.025 2°56.706 303.1 1.6 128 24.2
2010-04-22 10:23:55 51°33.018 2°56.745 296.6 1.4 103 24.3
2010-04-22 10:24:55 51°33.014 2°56.779 289.4 1.2 100 22.9
2010-04-22 10:25:55 51°33.013 2°56.811 281 1.1 87 23.2
2010-04-22 10:26:55 51°33.014 2°56.839 270.8 1 80 24.2
2010-04-22 10:27:55 51°33.019 2°56.864 259.9 1 74 24.1
2010-04-22 10:28:55 51°33.025 2°56.883 253.3 0.7 55 23.9
2010-04-22 10:29:55 51°33.029 2°56.901 246.1 0.7 78 24.9
2010-04-22 10:30:55 51°33.034 2°56.915 239.3 0.5 78 24.5
2010-04-22 10:31:55 51°33.039 2°56.924 232.7 0.4 59 24.3
2010-04-22 10:32:55 51°33.043 2°56.931 226.8 0.3 66 24.7
2010-04-22 10:33:55 51°33.046 2°56.937 220.6 0.3 64 24.5
2010-04-22 10:34:55 51°33.048 2°56.942 215.9 0.1 73 24.5
2010-04-22 10:35:55 51°33.048 2°56.946 214.6 0.1 98 24.4
2010-04-22 10:36:55 51°33.048 2°56.948 218.8 0.2 116 24.7
2010-04-22 10:37:55 51°33.047 2°56.948 227.1 0.1 254 24.5
2010-04-22 10:38:55 51°33.047 2°56.946 237.5 0.2 299 24.3
2010-04-22 10:39:55 51°33.047 2°56.943 242.5 0.1 253 24.5
2010-04-22 10:40:55 51°33.04 2°56.896 258.8 4.4 259 24.5
2010-04-22 10:41:55 51°33.024 2°56.723 263.2 8.3 263 24.5
2010-04-22 10:42:55 51°33.005 2°56.479 263.6 9.5 268 23.1
2010-04-22 10:43:55 51°33.018 2°56.22 277.9 9.9 279 25.3
2010-04-22 10:44:55 51°33.064 2°56.001 286.6 6.6 286 25.6
2010-04-22 10:45:55 51°33.065 2°55.89 250.7 2.2 247 26.2
2010-04-22 10:46:55 51°33.059 2°55.869 219.6 0.6 240 24.3
2010-04-22 10:47:55 51°33.053 2°55.858 199.4 0.6 201 24.2
2010-04-22 10:48:55 51°33.045 2°55.852 187.5 0.6 186 24.7
2010-04-22 10:49:55 51°33.04 2°55.849 181.8 0.2 186 24.6
2010-04-22 10:50:55 51°33.03 2°55.851 155.4 0.8 158 24.3
2010-04-22 10:51:55 51°33.018 2°55.866 123.9 0.9 115 24.9
2010-04-22 10:52:55 51°33.012 2°55.891 96.2 1.1 97 25
2010-04-22 10:53:55 51°33.016 2°55.919 68.4 1.2 74 23.7
2010-04-22 10:54:55 51°33.027 2°55.941 43.2 1.2 35 25.1
2010-04-22 10:55:55 51°33.044 2°55.957 28.9 1.3 36 25.8
2010-04-22 10:56:55 51°33.066 2°55.967 17.5 1.3 13 25.8
2010-04-22 10:57:55 51°33.086 2°55.969 356.7 1.2 351 24.8
2010-04-22 10:58:55 51°33.104 2°55.959 330.4 1 332 24.5
2010-04-22 10:59:55 51°33.116 2°55.936 302.1 1.2 304 24.9
2010-04-22 11:02:06 51°33.133 2°55.866 315.2 1.4 308 26.3
2010-04-22 11:03:06 51°33.148 2°55.846 343.3 1.2 341 26
2010-04-22 11:04:06 51°33.163 2°55.839 13.4 0.9 5 26.1
2010-04-22 11:05:06 51°33.176 2°55.846 47.5 0.8 35 25.7
2010-04-22 11:06:06 51°33.18 2°55.859 69 0.5 55 25.6
2010-04-22 11:07:06 51°33.18 2°55.868 77.2 0.3 82 24.9
2010-04-22 11:08:06 51°33.177 2°55.875 80.4 0.3 135 24.5
2010-04-22 11:09:06 51°33.174 2°55.88 80.2 0.2 146 24.5
2010-04-22 11:10:06 51°33.171 2°55.883 81.8 0.1 32 24.9
2010-04-22 11:11:06 51°33.167 2°55.884 82.8 0.4 175 24.9
2010-04-22 11:12:06 51°33.163 2°55.885 82.8 -999 238 24.8
2010-04-22 11:13:06 51°33.158 2°55.885 82.7 0.4 180 25.8
2010-04-22 11:14:06 51°33.154 2°55.884 86.2 0.4 192 25.4
2010-04-22 11:15:06 51°33.149 2°55.882 90.5 0.1 345 25.5
2010-04-22 11:16:06 51°33.143 2°55.88 96.5 0.2 188 25.7
2010-04-22 11:17:06 51°33.137 2°55.877 100.6 0.5 196 26
2010-04-22 11:18:06 51°33.131 2°55.873 105.4 0.5 202 26.4
2010-04-22 11:19:06 51°33.124 2°55.869 107.5 0.5 197 25.7
2010-04-22 11:20:06 51°33.117 2°55.864 109.1 0.5 203 25.5
2010-04-22 11:21:06 51°33.109 2°55.858 109.3 0.5 206 25.4
2010-04-22 11:22:06 51°33.1 2°55.85 109 0.5 212 25
2010-04-22 11:23:06 51°33.092 2°55.841 110 0.7 217 24.5
2010-04-22 11:24:06 51°33.084 2°55.831 111.3 0.9 214 24.7
2010-04-22 11:25:06 51°33.075 2°55.821 117.8 0.6 218 24.3
2010-04-22 11:26:06 51°33.067 2°55.811 121.1 0.5 209 25.3
2010-04-22 11:27:06 51°33.059 2°55.802 122.4 0.7 210 25.3
2010-04-22 11:28:06 51°33.05 2°55.794 122.1 0.5 198 24.2
2010-04-22 11:29:06 51°33.041 2°55.785 122.5 0.8 211 23.9
2010-04-22 11:30:06 51°33.031 2°55.781 116.4 1 149 23.7
2010-04-22 11:31:06 51°33.027 2°55.815 67.7 1.6 55 23.8
2010-04-22 11:32:06 51°33.056 2°55.849 23 3.5 17 24.1
2010-04-22 11:33:06 51°33.168 2°55.886 12.4 8.6 8 24.9
2010-04-22 11:34:06 51°33.273 2°55.884 355.6 4.1 349 25.9
2010-04-22 11:35:06 51°33.314 2°55.853 329.7 2 316 26.4
2010-04-22 11:36:06 51°33.332 2°55.82 326.1 1.5 309 26.1
2010-04-22 11:37:06 51°33.342 2°55.794 319.1 0.7 297 25.2
2010-04-22 11:38:06 51°33.343 2°55.773 309.9 0.7 255 25.7
2010-04-22 11:39:06 51°33.338 2°55.764 301.9 0.7 204 25.2
2010-04-22 11:40:06 51°33.328 2°55.764 292.6 0.4 157 24.7
2010-04-22 11:41:06 51°33.318 2°55.766 283 0.5 174 24.7
2010-04-22 11:42:06 51°33.309 2°55.766 275.2 0.7 187 25
2010-04-22 11:43:06 51°33.3 2°55.765 268.3 0.6 175 25
2010-04-22 11:44:06 51°33.291 2°55.765 263.1 0.4 187 23.6
2010-04-22 11:45:06 51°33.281 2°55.763 257.1 0.6 188 23.6
2010-04-22 11:46:06 51°33.272 2°55.759 252.1 0.5 209 22.5
2010-04-22 11:47:06 51°33.263 2°55.755 249.6 0.7 191 25.5
2010-04-22 11:48:06 51°33.255 2°55.749 248.2 0.5 196 25.8
2010-04-22 11:49:06 51°33.246 2°55.744 244.4 0.5 203 26
2010-04-22 11:50:06 51°33.237 2°55.739 241.4 0.6 208 26.2
2010-04-22 11:51:06 51°33.228 2°55.733 234.8 0.6 211 25.9
2010-04-22 11:52:06 51°33.218 2°55.726 230.2 0.8 186 25.6
2010-04-22 11:53:06 51°33.21 2°55.72 226.3 0.3 195 24.9
2010-04-22 11:54:06 51°33.206 2°55.722 221.5 0.2 97 24.9
2010-04-22 11:55:06 51°33.199 2°55.717 223.7 2 229 25
2010-04-22 11:56:06 51°33.186 2°55.638 291.9 3.8 286 25.6
2010-04-22 11:57:06 51°33.238 2°55.593 14.4 4.1 13 25
2010-04-22 11:58:06 51°33.278 2°55.638 49.5 2.4 50 26
2010-04-22 11:59:06 51°33.294 2°55.685 61.7 1.9 68 25.8
2010-04-22 12:00:06 51°33.305 2°55.727 60.2 1.4 62 23.8
2010-04-22 12:01:06 51°33.312 2°55.759 56.8 1.1 76 25.2
2010-04-22 12:02:06 51°33.316 2°55.782 54.7 0.8 79 24.9
2010-04-22 12:03:06 51°33.32 2°55.799 50.2 0.7 74 25.2
2010-04-22 12:04:06 51°33.336 2°55.831 48.2 2.1 56 26.7
2010-04-22 12:05:06 51°33.356 2°55.876 53 2.2 60 26.4
2010-04-22 12:06:06 51°33.372 2°55.925 57.9 1.8 61 23.6
2010-04-22 12:07:06 51°33.38 2°55.961 59.4 1.2 76 24.7
2010-04-22 12:08:06 51°33.382 2°55.987 58.9 0.8 87 24.9
2010-04-22 12:09:06 51°33.381 2°56.003 58.7 0.5 95 25.4
2010-04-22 12:10:06 51°33.376 2°56.014 61.1 0.8 140 25.5
2010-04-22 12:11:06 51°33.369 2°56.019 60.2 0.5 172 24.5
2010-04-22 12:12:06 51°33.36 2°56.026 70.3 0.7 139 24.9
2010-04-22 12:13:06 51°33.348 2°56.045 101.5 1.3 140 23.9
2010-04-22 12:14:06 51°33.325 2°56.065 133 1.8 160 26.5
2010-04-22 12:15:06 51°33.291 2°56.073 164.8 2.2 180 27.2
2010-04-22 12:16:06 51°33.256 2°56.08 145.2 2.1 163 26.7
2010-04-22 12:17:06 51°33.229 2°56.102 112.5 1.6 144 26.4
2010-04-22 12:18:06 51°33.213 2°56.127 87.8 1.2 139 26.1
2010-04-22 12:19:06 51°33.2 2°56.143 85.5 0.8 136 26
2010-04-22 12:20:06 51°33.187 2°56.154 84.3 0.8 158 25.5
2010-04-22 12:21:06 51°33.173 2°56.16 85.2 0.9 172 25.8
2010-04-22 12:22:06 51°33.158 2°56.162 84.1 0.7 181 25.5
2010-04-22 12:23:06 51°33.144 2°56.162 83.6 1 181 25.6
2010-04-22 12:24:06 51°33.128 2°56.16 85.6 1 188 25.2
2010-04-22 12:25:06 51°33.111 2°56.155 87.8 1.2 188 24.9
2010-04-22 12:26:06 51°33.095 2°56.148 87.3 1.1 191 23.4
2010-04-22 12:27:06 51°33.078 2°56.141 87.8 1.1 193 25.3
2010-04-22 12:28:06 51°33.061 2°56.133 87.6 0.9 206 25
2010-04-22 12:29:06 51°33.045 2°56.125 86.2 0.9 205 23.8
2010-04-22 12:30:06 51°33.027 2°56.115 86.8 1.2 197 23.2
2010-04-22 12:31:06 51°33.009 2°56.104 89.4 0.9 205 25.6
2010-04-22 12:32:06 51°32.99 2°56.092 90.4 1.3 199 24.9
2010-04-22 12:33:06 51°32.971 2°56.081 89.9 1.1 203 23.5
2010-04-22 12:34:06 51°32.953 2°56.073 84.8 1.1 181 25.1
2010-04-22 12:35:06 51°32.943 2°56.085 52.5 0.4 104 24.8
2010-04-22 12:36:06 51°32.955 2°56.091 9 2.9 -999 24.7
2010-04-22 12:37:06 51°33.066 2°56.068 356.8 8.8 350 23.7
2010-04-22 12:38:06 51°33.222 2°56.066 22.2 10.1 21 25.6
2010-04-22 12:39:06 51°33.395 2°56.129 9.4 10.9 4 25
2010-04-22 12:40:06 51°33.501 2°56.102 355 4.1 345 27.7
2010-04-22 12:41:06 51°33.548 2°56.084 4.8 2 348 27.4
2010-04-22 12:42:06 51°33.571 2°56.077 15.6 1.1 352 26.9
2010-04-22 12:43:06 51°33.582 2°56.075 23.4 0.4 337 27
2010-04-22 12:44:06 51°33.585 2°56.071 26.3 0.1 280 27.2
2010-04-22 12:45:06 51°33.583 2°56.065 26.7 0.3 215 27.2
2010-04-22 12:46:06 51°33.577 2°56.058 28.4 0.5 203 27.4
2010-04-22 12:47:06 51°33.57 2°56.048 29 0.7 222 27.7
2010-04-22 12:48:06 51°33.56 2°56.037 30.8 0.7 213 27.8
2010-04-22 12:49:06 51°33.549 2°56.026 34.4 0.9 211 27.5
2010-04-22 12:50:06 51°33.536 2°56.013 39.7 0.9 199 27.9
2010-04-22 12:51:06 51°33.52 2°55.999 47.7 1.1 217 26.7
2010-04-22 12:52:06 51°33.503 2°55.984 53.8 1.4 196 27.1
2010-04-22 12:53:06 51°33.485 2°55.967 61.7 1.2 215 26
2010-04-22 12:54:06 51°33.467 2°55.949 69 1.3 210 27.3
2010-04-22 12:55:06 51°33.448 2°55.93 78.8 1.3 216 26.1
2010-04-22 12:56:06 51°33.429 2°55.91 88.2 1.3 214 25.7
2010-04-22 12:57:06 51°33.409 2°55.89 96.2 1.4 213 25.5
2010-04-22 12:58:06 51°33.389 2°55.87 103.9 1.6 212 24.4
2010-04-22 12:59:06 51°33.369 2°55.85 110.4 1.4 213 25.7
2010-04-22 13:00:06 51°33.35 2°55.83 117.7 1.4 214 26.3
2010-04-22 13:01:06 51°33.33 2°55.811 122.7 1.4 210 25.5
2010-04-22 13:02:06 51°33.309 2°55.792 123.2 1.5 210 25.7
2010-04-22 13:03:06 51°33.285 2°55.784 120.6 2.7 157 24.6
2010-04-22 13:04:06 51°33.253 2°55.877 91.4 5.1 105 25
2010-04-22 13:05:06 51°33.248 2°56.054 82 8 86 26.6
2010-04-22 13:06:06 51°33.272 2°56.276 72.1 8.6 75 27.2
2010-04-22 13:07:06 51°33.32 2°56.481 60.3 6.4 60 25.1
2010-04-22 13:08:06 51°33.367 2°56.558 29.3 2.8 30 24.9
2010-04-22 13:09:06 51°33.399 2°56.569 13.3 1.5 356 26
2010-04-22 13:10:06 51°33.416 2°56.559 5.5 0.8 326 26.7
2010-04-22 13:11:06 51°33.422 2°56.543 1.7 0.7 284 26.9
2010-04-22 13:12:06 51°33.421 2°56.525 358.8 0.8 250 26.6
2010-04-22 13:13:06 51°33.415 2°56.506 356.7 0.8 239 26.5
2010-04-22 13:14:06 51°33.405 2°56.487 356 0.9 224 26.6
2010-04-22 13:15:06 51°33.392 2°56.467 355.7 1 220 25.9
2010-04-22 13:16:06 51°33.377 2°56.446 355.6 1.2 215 25.6
2010-04-22 13:17:06 51°33.36 2°56.427 357.4 1.3 213 25.9
2010-04-22 13:18:06 51°33.342 2°56.406 0.3 1.4 214 26.8
2010-04-22 13:19:06 51°33.322 2°56.386 4 1.4 211 26.5
2010-04-22 13:20:06 51°33.301 2°56.366 7.8 1.5 208 25.9
2010-04-22 13:21:06 51°33.278 2°56.346 13.7 1.6 207 26.8
2010-04-22 13:22:06 51°33.253 2°56.326 21.2 1.7 208 27.1
2010-04-22 13:23:06 51°33.227 2°56.305 31.3 1.7 207 27.1
2010-04-22 13:24:06 51°33.201 2°56.282 39.7 1.9 208 25.8
2010-04-22 13:25:06 51°33.174 2°56.258 49.5 2 210 24.8
2010-04-22 13:26:06 51°33.148 2°56.231 58.7 1.9 209 26.3
2010-04-22 13:27:06 51°33.122 2°56.203 68.4 1.8 219 25
2010-04-22 13:28:06 51°33.097 2°56.175 80.7 1.8 216 24.2
2010-04-22 13:29:06 51°33.073 2°56.147 94 1.9 216 25.5
2010-04-22 13:30:06 51°33.05 2°56.119 102.9 1.7 218 24.6
2010-04-22 13:31:06 51°33.027 2°56.093 112.2 1.7 215 25.1
2010-04-22 13:32:06 51°33.003 2°56.083 101.6 1.6 157 25.7
2010-04-22 13:33:06 51°32.983 2°56.115 79.1 1.5 124 25.4
2010-04-22 13:34:06 51°32.972 2°56.146 68.7 1.3 114 25.4
2010-04-22 13:35:06 51°32.967 2°56.176 59.9 1.1 102 25.5
2010-04-22 13:36:06 51°32.966 2°56.204 53.2 1 80 25.3
2010-04-22 13:37:06 51°32.969 2°56.229 48 0.9 82 24.1
2010-04-22 13:38:06 51°32.974 2°56.25 41.4 0.7 67 23.6
2010-04-22 13:39:06 51°32.981 2°56.266 34.9 0.6 54 24.3
2010-04-22 13:40:06 51°32.994 2°56.276 25.4 1 15 24.1
2010-04-22 13:41:06 51°33.016 2°56.279 14.4 1.5 358 25.5
2010-04-22 13:42:06 51°33.069 2°56.259 352.9 5.6 338 23.6
2010-04-22 13:43:06 51°33.17 2°56.115 320.1 10.1 310 25.9
2010-04-22 13:44:06 51°33.258 2°55.85 293.9 12.9 288 25
2010-04-22 13:45:06 51°33.294 2°55.491 284 13.7 278 24.6
2010-04-22 13:46:06 51°33.299 2°55.124 269.5 13.9 266 25.6
2010-04-22 13:47:06 51°33.225 2°54.786 226.5 13.7 221 26.3
2010-04-22 13:48:06 51°33.002 2°54.674 188 14 190 25.7
2010-04-22 13:49:06 51°32.767 2°54.619 184.3 14.5 191 20.4
2010-04-22 13:50:06 51°32.528 2°54.564 184 15 191 23.3
2010-04-22 13:51:06 51°32.281 2°54.507 184.8 14.8 186 22.2
2010-04-22 13:52:06 51°32.032 2°54.448 185.1 15.4 188 20.7
2010-04-22 13:53:06 51°31.782 2°54.393 186.1 15 187 20.9
2010-04-22 13:54:06 51°31.534 2°54.339 185.7 14.7 185 19.4
2010-04-22 13:55:06 51°31.284 2°54.28 185.2 15.5 190 18.9
2010-04-22 13:56:06 51°31.034 2°54.227 184.6 15.2 187 18.7
2010-04-22 13:57:06 51°30.784 2°54.171 186.5 15 187 20.5
2010-04-22 13:58:06 51°30.538 2°54.116 185.9 14.3 182 32.2
2010-04-22 13:59:06 51°30.295 2°54.055 186.1 14.2 188 32.3
2010-04-22 14:00:06 51°30.053 2°53.967 194.6 15.1 198 31.2
2010-04-22 14:01:06 51°29.814 2°53.81 203.3 15 203 31.5
2010-04-22 14:02:06 51°29.582 2°53.644 201.3 15.3 204 30.5
2010-04-22 14:03:06 51°29.357 2°53.461 210.6 14.9 210 30.1
2010-04-22 14:04:06 51°29.138 2°53.262 203.3 15.2 202 28.1
2010-04-22 14:05:06 51°28.895 2°53.165 182.2 15 184 26.2
2010-04-22 14:06:06 51°28.645 2°53.138 178.6 14.4 183 25.4
2010-04-22 14:07:06 51°28.397 2°53.112 179.3 14.6 184 23.1
2010-04-22 14:08:06 51°28.148 2°53.081 180.8 14.9 181 22.2
2010-04-22 14:09:06 51°27.897 2°53.054 179.6 15 183 21.7
2010-04-22 14:10:06 51°27.647 2°53.024 180.1 15.2 184 21.2
2010-04-22 14:11:06 51°27.399 2°52.996 180 14.9 183 19.8
2010-04-22 14:12:06 51°27.15 2°52.966 181 14.5 184 25
2010-04-22 14:13:06 51°26.9 2°52.93 180.1 14.8 188 28
2010-04-22 14:14:06 51°26.65 2°52.897 180.8 14.8 185 28.5
2010-04-22 14:15:06 51°26.399 2°52.86 179.8 14.9 186 25.5
2010-04-22 14:16:06 51°26.147 2°52.82 180.1 15.5 184 26.8
2010-04-22 14:17:06 51°25.895 2°52.78 180.1 15.3 185 27
2010-04-22 14:18:06 51°25.645 2°52.742 181 15 185 25.6
2010-04-22 14:19:06 51°25.394 2°52.699 180.2 15.5 187 23.9
2010-04-22 14:20:06 51°25.144 2°52.661 180.1 15.2 184 22.9
2010-04-22 14:21:06 51°24.896 2°52.625 181 15.1 187 21.2
2010-04-22 14:22:06 51°24.649 2°52.593 179.8 14.8 183 19.6
2010-04-22 14:23:06 51°24.403 2°52.588 170.9 14.9 174 19.1
2010-04-22 14:24:06 51°24.161 2°52.629 168.5 14.3 172 18.4
2010-04-22 14:25:06 51°23.916 2°52.673 168.3 14.7 174 17.2
2010-04-22 14:26:06 51°23.673 2°52.72 167.9 14.8 171 19.8
2010-04-22 14:27:06 51°23.427 2°52.757 169 15.1 177 20.5
2010-04-22 14:28:06 51°23.179 2°52.79 170.2 14.7 172 17.9
2010-04-22 14:29:06 51°22.933 2°52.825 168.2 14.8 178 23
2010-04-22 14:30:06 51°22.685 2°52.861 168.1 15 176 22.6
2010-04-22 14:31:06 51°22.435 2°52.834 181.5 14.8 185 22.6
2010-04-22 14:32:06 51°22.189 2°52.797 181.5 14.9 187 24.1
2010-04-22 14:33:06 51°21.946 2°52.75 182.2 15 188 22.6
2010-04-22 14:34:06 51°21.702 2°52.712 179.8 14.5 183 19.7
2010-04-22 14:35:06 51°21.459 2°52.675 180.2 14.7 185 17.4
2010-04-22 14:36:06 51°21.213 2°52.642 179.5 14.7 185 15.8
2010-04-22 14:37:06 51°20.967 2°52.608 180.6 14.7 186 14.9
2010-04-22 14:38:06 51°20.721 2°52.575 181 14.6 185 15
2010-04-22 14:39:06 51°20.475 2°52.542 180.4 14.8 186 15.6
2010-04-22 14:40:06 51°20.228 2°52.507 180.7 15 186 16
2010-04-22 14:41:06 51°19.979 2°52.476 179.6 15.2 184 16.1
2010-04-22 14:42:06 51°19.731 2°52.442 180.8 14.4 185 15.9
2010-04-22 14:43:06 51°19.484 2°52.407 181 14.7 185 15.3
2010-04-22 14:44:06 51°19.238 2°52.375 181.1 14.6 185 14.5
2010-04-22 14:45:06 51°18.992 2°52.341 180.1 14.9 186 13.3
2010-04-22 14:46:06 51°18.746 2°52.309 179.9 14.7 184 12.3
2010-04-22 14:47:06 51°18.501 2°52.283 180.2 14.5 184 11.3
2010-04-22 14:48:06 51°18.255 2°52.256 180.1 14.5 183 11.3
2010-04-22 14:49:06 51°18.009 2°52.227 181.5 14.6 184 11.2
2010-04-22 14:50:06 51°17.763 2°52.201 180.5 14.7 184 10.9
2010-04-22 14:51:06 51°17.516 2°52.19 179.5 14.7 181 11.5
2010-04-22 14:52:06 51°17.271 2°52.229 166.6 14.7 169 11.4
2010-04-22 14:53:06 51°17.04 2°52.331 157.2 14.2 160 10.1
2010-04-22 14:54:06 51°16.82 2°52.483 148.3 14.3 152 9.6
2010-04-22 14:55:06 51°16.613 2°52.668 149.6 14.4 152 11.2
2010-04-22 14:56:06 51°16.404 2°52.848 148.1 14 153 12
2010-04-22 14:57:06 51°16.195 2°53.027 146.9 14 155 12.1
2010-04-22 14:58:06 51°15.986 2°53.199 147.2 14.3 153 11.8
2010-04-22 14:59:06 51°15.791 2°53.406 137.9 14.5 141 11.2
2010-04-22 15:00:06 51°15.615 2°53.643 134 13.9 137 11.2
2010-04-22 15:01:06 51°15.444 2°53.884 134.4 13.3 142 10.7
2010-04-22 15:02:06 51°15.273 2°54.126 135.7 13.9 139 10.4
2010-04-22 15:03:06 51°15.099 2°54.363 134.7 13.7 139 10
2010-04-22 15:04:06 51°14.912 2°54.575 140.9 13.7 144 12
2010-04-22 15:05:06 51°14.719 2°54.774 143.7 13.4 147 12.4
2010-04-22 15:06:06 51°14.536 2°54.959 142.3 13.1 147 11.9
2010-04-22 15:07:06 51°14.37 2°55.161 142.6 12.2 142 10.6
2010-04-22 15:08:08 51°14.228 2°55.32 146.1 8.1 148 -999
2010-04-22 15:09:09 51°14.127 2°55.409 151.7 6.2 153 -999
2010-04-22 15:10:09 51°14.03 2°55.482 155.4 7.2 155 11.3
2010-04-22 15:11:09 51°13.909 2°55.571 155.2 8 156 -999
2010-04-22 15:12:09 51°13.792 2°55.666 148.9 7.5 148 -999
2010-04-22 15:12:25 51°13.769 2°55.692 128.6 -999 142 -999
2010-04-22 15:14:08 51°13.685 2°55.892 112.6 3.6 112 8.7
2010-04-22 15:15:07 51°13.661 2°55.956 121.4 0.6 126 6.5